createdAt,value
2019-01-28T00:06:06.098Z,2.57
2019-01-28T00:16:09.752Z,2.87
2019-01-28T00:26:13.329Z,3.13
2019-01-28T00:36:16.913Z,2.90
2019-01-28T00:46:20.495Z,3.03
2019-01-28T00:56:24.069Z,3.30
2019-01-28T01:06:27.649Z,3.80
2019-01-28T01:16:31.242Z,3.50
2019-01-28T01:26:34.814Z,4.30
2019-01-28T01:36:38.394Z,3.70
2019-01-28T01:46:41.986Z,3.90
2019-01-28T01:56:45.562Z,4.83
2019-01-28T02:06:49.438Z,4.97
2019-01-28T02:16:53.019Z,5.60
2019-01-28T02:26:56.831Z,5.43
2019-01-28T02:37:00.405Z,6.10
2019-01-28T02:47:03.974Z,6.63
2019-01-28T02:57:07.563Z,6.77
2019-01-28T03:07:11.138Z,6.03
2019-01-28T03:17:14.743Z,5.70
2019-01-28T03:27:18.317Z,6.87
2019-01-28T03:37:21.904Z,7.37
2019-01-28T03:47:25.483Z,7.60
2019-01-28T03:57:29.052Z,6.40
2019-01-28T04:07:32.625Z,7.57
2019-01-28T04:17:36.279Z,9.00
2019-01-28T04:27:40.210Z,10.40
2019-01-28T04:37:43.864Z,9.97
2019-01-28T04:47:47.698Z,9.47
2019-01-28T04:57:51.270Z,6.60
2019-01-28T05:07:54.872Z,8.80
2019-01-28T05:17:58.721Z,10.83
2019-01-28T05:28:02.302Z,8.90
2019-01-28T05:38:05.903Z,8.97
2019-01-28T05:48:09.491Z,10.90
2019-01-28T05:58:13.067Z,9.73
2019-01-28T06:08:16.664Z,9.20
2019-01-28T06:18:20.263Z,9.73
2019-01-28T06:28:23.849Z,8.90
2019-01-28T06:38:27.438Z,8.63
2019-01-28T06:48:31.048Z,8.23
2019-01-28T06:58:34.617Z,8.37
2019-01-28T07:08:38.221Z,9.50
2019-01-28T07:18:42.034Z,9.83
2019-01-28T07:28:45.602Z,9.60
2019-01-28T07:38:49.159Z,8.67
2019-01-28T07:48:52.734Z,7.97
2019-01-28T07:58:56.310Z,8.90
2019-01-28T08:08:59.918Z,9.47
2019-01-28T08:19:03.512Z,9.07
2019-01-28T08:29:07.104Z,9.30
2019-01-28T08:39:10.701Z,6.10
2019-01-28T08:49:14.266Z,6.83
2019-01-28T08:59:17.848Z,7.60
2019-01-28T09:09:21.429Z,6.03
2019-01-28T09:19:25.026Z,6.73
2019-01-28T09:29:28.607Z,6.60
2019-01-28T09:39:32.187Z,8.60
2019-01-28T09:49:35.773Z,6.83
2019-01-28T09:59:39.346Z,6.30
2019-01-28T10:09:42.950Z,6.40
2019-01-28T10:19:46.535Z,6.63
2019-01-28T10:29:50.111Z,6.73
2019-01-28T10:39:53.698Z,5.00
2019-01-28T10:49:57.287Z,4.53
2019-01-28T11:00:00.885Z,4.03
2019-01-28T11:10:05.123Z,3.90
2019-01-28T11:20:09.837Z,4.13
2019-01-28T11:30:17.181Z,4.27
2019-01-28T11:40:20.947Z,2.70
2019-01-28T11:50:24.546Z,2.00
2019-01-28T12:00:32.792Z,2.07
2019-01-28T12:10:36.383Z,2.00
2019-01-28T12:20:39.957Z,2.40
2019-01-28T12:30:45.175Z,1.80
2019-01-28T12:40:48.749Z,1.47
2019-01-28T12:50:52.318Z,1.30
2019-01-28T13:00:59.937Z,1.30
2019-01-28T13:11:03.579Z,1.50
2019-01-28T13:21:07.143Z,1.63
2019-01-28T13:31:10.726Z,2.13
2019-01-28T13:41:14.294Z,1.73
2019-01-28T13:51:17.886Z,1.40
2019-01-28T14:01:21.478Z,2.13
2019-01-28T14:11:25.060Z,2.20
2019-01-28T14:21:28.659Z,4.37
2019-01-28T14:31:32.257Z,2.37
2019-01-28T14:41:36.637Z,2.40
2019-01-28T14:51:40.243Z,1.83
2019-01-28T15:01:43.821Z,2.60
2019-01-28T15:11:47.398Z,2.40
2019-01-28T15:21:50.978Z,3.00
2019-01-28T15:31:54.554Z,4.30
2019-01-28T15:41:58.203Z,4.23
2019-01-28T15:52:01.777Z,4.77
2019-01-28T16:02:05.387Z,4.00
2019-01-28T16:12:08.970Z,2.60
2019-01-28T16:22:12.530Z,2.07
2019-01-28T16:32:16.102Z,1.70
2019-01-28T16:42:19.845Z,1.70
2019-01-28T16:52:23.399Z,5.70
2019-01-28T17:02:26.979Z,4.97
2019-01-28T17:12:30.593Z,4.33
2019-01-28T17:22:34.332Z,4.17
2019-01-28T17:32:37.895Z,2.77
2019-01-28T17:42:41.470Z,3.23
2019-01-28T17:52:45.043Z,3.20
2019-01-28T18:02:48.622Z,3.20
2019-01-28T18:12:52.242Z,2.80
2019-01-28T18:22:55.814Z,2.30
2019-01-28T18:32:59.383Z,2.40
2019-01-28T18:43:03.035Z,2.20
2019-01-28T18:53:07.301Z,2.37
2019-01-28T19:03:11.122Z,2.20
2019-01-28T19:13:49.241Z,2.07
2019-01-28T19:23:52.966Z,2.50
2019-01-28T19:33:56.591Z,2.50
2019-01-28T19:44:00.472Z,2.77
2019-01-28T19:54:04.216Z,2.80
2019-01-28T20:04:09.131Z,2.60
2019-01-28T20:14:12.845Z,2.70
2019-01-28T20:24:16.659Z,1.80
2019-01-28T20:34:20.416Z,2.03
2019-01-28T20:44:24.239Z,2.30
2019-01-28T20:54:27.961Z,1.97
2019-01-28T21:04:31.674Z,3.03
2019-01-28T21:14:35.445Z,2.50
2019-01-28T21:24:39.254Z,2.70
2019-01-28T21:34:42.867Z,2.10
2019-01-28T21:44:46.488Z,1.87
2019-01-28T21:54:50.182Z,1.57
2019-01-28T22:04:53.858Z,1.10
2019-01-28T22:14:58.120Z,1.30
2019-01-28T22:25:05.954Z,1.80
2019-01-28T22:35:09.610Z,1.50
2019-01-28T22:45:16.193Z,1.83
2019-01-28T22:55:20.389Z,1.20
2019-01-28T23:05:24.068Z,1.50
2019-01-28T23:15:27.664Z,1.43
2019-01-28T23:25:31.280Z,2.17
2019-01-28T23:35:34.890Z,1.70
2019-01-28T23:45:38.509Z,1.13
2019-01-28T23:55:42.096Z,1.47
